sensor_id;sensor_type;location;lat;lon;timestamp;temperature;humidity
28374;DHT22;15616;40.148;-102.718;2023-06-10T00:02:15;24.90;47.50
28374;DHT22;15616;40.148;-102.718;2023-06-10T00:04:42;24.90;47.50
28374;DHT22;15616;40.148;-102.718;2023-06-10T00:07:08;24.90;47.50
28374;DHT22;15616;40.148;-102.718;2023-06-10T00:09:34;24.90;47.50
28374;DHT22;15616;40.148;-102.718;2023-06-10T00:12:02;24.90;47.50
28374;DHT22;15616;40.148;-102.718;2023-06-10T00:14:28;24.80;47.50
28374;DHT22;15616;40.148;-102.718;2023-06-10T00:16:53;24.90;47.60
28374;DHT22;15616;40.148;-102.718;2023-06-10T00:19:20;24.90;47.60
28374;DHT22;15616;40.148;-102.718;2023-06-10T00:21:51;24.80;47.60
28374;DHT22;15616;40.148;-102.718;2023-06-10T00:24:18;24.80;47.60
28374;DHT22;15616;40.148;-102.718;2023-06-10T00:26:44;24.80;47.60
28374;DHT22;15616;40.148;-102.718;2023-06-10T00:29:10;24.80;47.60
28374;DHT22;15616;40.148;-102.718;2023-06-10T00:31:37;24.80;47.60
28374;DHT22;15616;40.148;-102.718;2023-06-10T00:34:03;24.80;47.70
28374;DHT22;15616;40.148;-102.718;2023-06-10T00:36:28;24.70;47.70
28374;DHT22;15616;40.148;-102.718;2023-06-10T00:38:55;24.70;47.80
28374;DHT22;15616;40.148;-102.718;2023-06-10T00:41:20;24.70;47.90
28374;DHT22;15616;40.148;-102.718;2023-06-10T00:43:46;24.70;47.90
28374;DHT22;15616;40.148;-102.718;2023-06-10T00:46:12;24.70;47.90
28374;DHT22;15616;40.148;-102.718;2023-06-10T00:48:39;24.70;47.90
28374;DHT22;15616;40.148;-102.718;2023-06-10T00:51:05;24.70;47.90
28374;DHT22;15616;40.148;-102.718;2023-06-10T00:53:31;24.70;47.90
28374;DHT22;15616;40.148;-102.718;2023-06-10T00:55:57;24.70;47.90
28374;DHT22;15616;40.148;-102.718;2023-06-10T00:58:24;24.60;47.90
28374;DHT22;15616;40.148;-102.718;2023-06-10T01:00:51;24.70;48.00
28374;DHT22;15616;40.148;-102.718;2023-06-10T01:03:17;24.60;48.00
28374;DHT22;15616;40.148;-102.718;2023-06-10T01:05:43;24.60;48.00
28374;DHT22;15616;40.148;-102.718;2023-06-10T01:10:43;24.60;48.10
28374;DHT22;15616;40.148;-102.718;2023-06-10T01:13:12;24.60;48.10
28374;DHT22;15616;40.148;-102.718;2023-06-10T01:15:39;24.60;48.10
28374;DHT22;15616;40.148;-102.718;2023-06-10T01:18:06;24.60;48.10
28374;DHT22;15616;40.148;-102.718;2023-06-10T01:20:32;24.60;48.20
28374;DHT22;15616;40.148;-102.718;2023-06-10T01:22:59;24.50;48.10
28374;DHT22;15616;40.148;-102.718;2023-06-10T01:25:26;24.50;48.20
28374;DHT22;15616;40.148;-102.718;2023-06-10T01:30:35;24.50;48.20
28374;DHT22;15616;40.148;-102.718;2023-06-10T01:33:03;24.50;48.30
28374;DHT22;15616;40.148;-102.718;2023-06-10T01:35:29;24.50;48.30
28374;DHT22;15616;40.148;-102.718;2023-06-10T01:37:56;24.50;48.30
28374;DHT22;15616;40.148;-102.718;2023-06-10T01:40:23;24.50;48.30
28374;DHT22;15616;40.148;-102.718;2023-06-10T01:42:49;24.50;48.20
28374;DHT22;15616;40.148;-102.718;2023-06-10T01:45:15;24.50;48.20
28374;DHT22;15616;40.148;-102.718;2023-06-10T01:47:40;24.50;48.30
28374;DHT22;15616;40.148;-102.718;2023-06-10T01:50:06;24.50;48.30
28374;DHT22;15616;40.148;-102.718;2023-06-10T01:52:32;24.50;48.30
28374;DHT22;15616;40.148;-102.718;2023-06-10T01:54:58;24.50;48.30
28374;DHT22;15616;40.148;-102.718;2023-06-10T01:57:23;24.50;48.30
28374;DHT22;15616;40.148;-102.718;2023-06-10T01:59:49;24.50;48.30
28374;DHT22;15616;40.148;-102.718;2023-06-10T02:02:15;24.50;48.30
28374;DHT22;15616;40.148;-102.718;2023-06-10T02:04:41;24.50;48.30
28374;DHT22;15616;40.148;-102.718;2023-06-10T02:07:06;24.50;48.30
28374;DHT22;15616;40.148;-102.718;2023-06-10T02:09:32;24.50;48.30
28374;DHT22;15616;40.148;-102.718;2023-06-10T02:12:03;24.50;48.40
28374;DHT22;15616;40.148;-102.718;2023-06-10T02:14:29;24.50;48.40
28374;DHT22;15616;40.148;-102.718;2023-06-10T02:16:55;24.50;48.40
28374;DHT22;15616;40.148;-102.718;2023-06-10T02:19:22;24.50;48.40
28374;DHT22;15616;40.148;-102.718;2023-06-10T02:21:48;24.50;48.50
28374;DHT22;15616;40.148;-102.718;2023-06-10T02:24:14;24.50;48.50
28374;DHT22;15616;40.148;-102.718;2023-06-10T02:26:40;24.50;48.50
28374;DHT22;15616;40.148;-102.718;2023-06-10T02:29:06;24.50;48.50
28374;DHT22;15616;40.148;-102.718;2023-06-10T02:31:32;24.50;48.60
28374;DHT22;15616;40.148;-102.718;2023-06-10T02:34:01;24.50;48.60
28374;DHT22;15616;40.148;-102.718;2023-06-10T02:36:26;24.50;48.60
28374;DHT22;15616;40.148;-102.718;2023-06-10T02:38:53;24.50;48.60
28374;DHT22;15616;40.148;-102.718;2023-06-10T02:41:19;24.50;48.60
28374;DHT22;15616;40.148;-102.718;2023-06-10T02:43:44;24.50;48.60
28374;DHT22;15616;40.148;-102.718;2023-06-10T02:46:10;24.50;48.60
28374;DHT22;15616;40.148;-102.718;2023-06-10T02:48:42;24.40;48.60
28374;DHT22;15616;40.148;-102.718;2023-06-10T02:51:09;24.40;48.60
28374;DHT22;15616;40.148;-102.718;2023-06-10T02:53:35;24.40;48.60
28374;DHT22;15616;40.148;-102.718;2023-06-10T02:56:01;24.50;48.60
28374;DHT22;15616;40.148;-102.718;2023-06-10T02:58:27;24.50;48.60
28374;DHT22;15616;40.148;-102.718;2023-06-10T03:00:53;24.50;48.60
28374;DHT22;15616;40.148;-102.718;2023-06-10T03:03:19;24.50;48.70
28374;DHT22;15616;40.148;-102.718;2023-06-10T03:05:45;24.40;48.60
28374;DHT22;15616;40.148;-102.718;2023-06-10T03:08:11;24.40;48.60
28374;DHT22;15616;40.148;-102.718;2023-06-10T03:10:36;24.40;48.60
28374;DHT22;15616;40.148;-102.718;2023-06-10T03:13:02;24.40;48.70
28374;DHT22;15616;40.148;-102.718;2023-06-10T03:15:28;24.40;48.70
28374;DHT22;15616;40.148;-102.718;2023-06-10T03:17:54;24.40;48.60
28374;DHT22;15616;40.148;-102.718;2023-06-10T03:20:20;24.40;48.60
28374;DHT22;15616;40.148;-102.718;2023-06-10T03:22:47;24.40;48.60
28374;DHT22;15616;40.148;-102.718;2023-06-10T03:25:12;24.40;48.70
28374;DHT22;15616;40.148;-102.718;2023-06-10T03:27:39;24.40;48.70
28374;DHT22;15616;40.148;-102.718;2023-06-10T03:30:05;24.40;48.80
28374;DHT22;15616;40.148;-102.718;2023-06-10T03:32:31;24.40;48.70
28374;DHT22;15616;40.148;-102.718;2023-06-10T03:34:57;24.40;48.80
28374;DHT22;15616;40.148;-102.718;2023-06-10T03:37:24;24.40;48.80
28374;DHT22;15616;40.148;-102.718;2023-06-10T03:39:49;24.30;48.70
28374;DHT22;15616;40.148;-102.718;2023-06-10T03:42:15;24.40;48.70
28374;DHT22;15616;40.148;-102.718;2023-06-10T03:44:41;24.30;48.70
28374;DHT22;15616;40.148;-102.718;2023-06-10T03:47:07;24.30;48.80
28374;DHT22;15616;40.148;-102.718;2023-06-10T03:49:33;24.40;48.80
28374;DHT22;15616;40.148;-102.718;2023-06-10T03:51:58;24.30;48.80
28374;DHT22;15616;40.148;-102.718;2023-06-10T03:54:24;24.30;48.80
28374;DHT22;15616;40.148;-102.718;2023-06-10T03:56:50;24.30;48.80
28374;DHT22;15616;40.148;-102.718;2023-06-10T03:59:16;24.40;48.80
28374;DHT22;15616;40.148;-102.718;2023-06-10T04:01:42;24.40;48.80
28374;DHT22;15616;40.148;-102.718;2023-06-10T04:04:09;24.40;48.80
28374;DHT22;15616;40.148;-102.718;2023-06-10T04:06:34;24.30;48.80
28374;DHT22;15616;40.148;-102.718;2023-06-10T04:09:00;24.30;48.80
28374;DHT22;15616;40.148;-102.718;2023-06-10T04:11:26;24.40;48.90
28374;DHT22;15616;40.148;-102.718;2023-06-10T04:13:52;24.40;48.90
28374;DHT22;15616;40.148;-102.718;2023-06-10T04:16:17;24.40;48.80
28374;DHT22;15616;40.148;-102.718;2023-06-10T04:18:43;24.40;48.80
28374;DHT22;15616;40.148;-102.718;2023-06-10T04:21:09;24.40;48.90
28374;DHT22;15616;40.148;-102.718;2023-06-10T04:23:35;24.40;48.90
28374;DHT22;15616;40.148;-102.718;2023-06-10T04:26:02;24.40;48.90
28374;DHT22;15616;40.148;-102.718;2023-06-10T04:28:28;24.40;48.90
28374;DHT22;15616;40.148;-102.718;2023-06-10T04:30:53;24.40;48.80
28374;DHT22;15616;40.148;-102.718;2023-06-10T04:33:19;24.30;48.80
28374;DHT22;15616;40.148;-102.718;2023-06-10T04:35:45;24.40;48.80
28374;DHT22;15616;40.148;-102.718;2023-06-10T04:38:13;24.40;48.90
28374;DHT22;15616;40.148;-102.718;2023-06-10T04:40:39;24.40;48.80
28374;DHT22;15616;40.148;-102.718;2023-06-10T04:43:05;24.40;48.90
28374;DHT22;15616;40.148;-102.718;2023-06-10T04:45:31;24.30;48.90
28374;DHT22;15616;40.148;-102.718;2023-06-10T04:47:56;24.40;48.90
28374;DHT22;15616;40.148;-102.718;2023-06-10T04:50:23;24.40;48.90
28374;DHT22;15616;40.148;-102.718;2023-06-10T04:52:48;24.40;48.90
28374;DHT22;15616;40.148;-102.718;2023-06-10T04:55:15;24.40;48.90
28374;DHT22;15616;40.148;-102.718;2023-06-10T04:57:41;24.30;48.90
28374;DHT22;15616;40.148;-102.718;2023-06-10T05:00:07;24.30;48.90
28374;DHT22;15616;40.148;-102.718;2023-06-10T05:02:33;24.30;48.90
28374;DHT22;15616;40.148;-102.718;2023-06-10T05:04:59;24.30;49.00
28374;DHT22;15616;40.148;-102.718;2023-06-10T05:07:25;24.30;49.00
28374;DHT22;15616;40.148;-102.718;2023-06-10T05:09:51;24.30;49.00
28374;DHT22;15616;40.148;-102.718;2023-06-10T05:12:17;24.30;49.10
28374;DHT22;15616;40.148;-102.718;2023-06-10T05:14:42;24.30;49.10
28374;DHT22;15616;40.148;-102.718;2023-06-10T05:17:10;24.30;49.10
28374;DHT22;15616;40.148;-102.718;2023-06-10T05:19:36;24.30;49.80
28374;DHT22;15616;40.148;-102.718;2023-06-10T05:22:02;24.30;49.10
28374;DHT22;15616;40.148;-102.718;2023-06-10T05:24:28;24.30;49.10
28374;DHT22;15616;40.148;-102.718;2023-06-10T05:26:54;24.30;49.10
28374;DHT22;15616;40.148;-102.718;2023-06-10T05:29:20;24.30;49.10
28374;DHT22;15616;40.148;-102.718;2023-06-10T05:31:45;24.30;49.10
28374;DHT22;15616;40.148;-102.718;2023-06-10T05:34:11;24.30;49.10
28374;DHT22;15616;40.148;-102.718;2023-06-10T05:36:37;24.30;49.10
28374;DHT22;15616;40.148;-102.718;2023-06-10T05:39:03;24.30;49.10
28374;DHT22;15616;40.148;-102.718;2023-06-10T05:41:28;24.30;49.10
28374;DHT22;15616;40.148;-102.718;2023-06-10T05:43:54;24.30;49.10
28374;DHT22;15616;40.148;-102.718;2023-06-10T05:46:20;24.30;49.10
28374;DHT22;15616;40.148;-102.718;2023-06-10T05:48:46;24.30;49.10
28374;DHT22;15616;40.148;-102.718;2023-06-10T05:51:11;24.30;49.00
28374;DHT22;15616;40.148;-102.718;2023-06-10T05:53:37;24.40;49.00
28374;DHT22;15616;40.148;-102.718;2023-06-10T05:56:03;24.30;49.00
28374;DHT22;15616;40.148;-102.718;2023-06-10T05:58:29;24.40;49.00
28374;DHT22;15616;40.148;-102.718;2023-06-10T06:00:55;24.40;49.00
28374;DHT22;15616;40.148;-102.718;2023-06-10T06:03:21;24.30;49.00
28374;DHT22;15616;40.148;-102.718;2023-06-10T06:05:47;24.40;49.00
28374;DHT22;15616;40.148;-102.718;2023-06-10T06:08:12;24.40;49.00
28374;DHT22;15616;40.148;-102.718;2023-06-10T06:10:46;24.40;49.10
28374;DHT22;15616;40.148;-102.718;2023-06-10T06:13:13;24.40;49.10
28374;DHT22;15616;40.148;-102.718;2023-06-10T06:15:38;24.40;49.00
28374;DHT22;15616;40.148;-102.718;2023-06-10T06:18:04;24.40;49.00
28374;DHT22;15616;40.148;-102.718;2023-06-10T06:20:30;24.40;49.00
28374;DHT22;15616;40.148;-102.718;2023-06-10T06:22:56;24.40;49.00
28374;DHT22;15616;40.148;-102.718;2023-06-10T06:25:21;24.50;49.00
28374;DHT22;15616;40.148;-102.718;2023-06-10T06:27:48;24.50;49.00
28374;DHT22;15616;40.148;-102.718;2023-06-10T06:30:14;24.50;49.00
28374;DHT22;15616;40.148;-102.718;2023-06-10T06:32:39;24.50;48.90
28374;DHT22;15616;40.148;-102.718;2023-06-10T06:35:05;24.40;48.90
28374;DHT22;15616;40.148;-102.718;2023-06-10T06:37:33;24.50;48.90
28374;DHT22;15616;40.148;-102.718;2023-06-10T06:39:59;24.50;48.90
28374;DHT22;15616;40.148;-102.718;2023-06-10T06:42:25;24.50;48.90
28374;DHT22;15616;40.148;-102.718;2023-06-10T06:44:50;24.50;48.90
28374;DHT22;15616;40.148;-102.718;2023-06-10T06:47:16;24.50;48.90
28374;DHT22;15616;40.148;-102.718;2023-06-10T06:49:48;24.50;48.90
28374;DHT22;15616;40.148;-102.718;2023-06-10T06:52:17;24.50;48.80
28374;DHT22;15616;40.148;-102.718;2023-06-10T06:54:42;24.50;48.80
28374;DHT22;15616;40.148;-102.718;2023-06-10T06:57:08;24.50;48.80
28374;DHT22;15616;40.148;-102.718;2023-06-10T06:59:34;24.50;48.80
28374;DHT22;15616;40.148;-102.718;2023-06-10T07:02:00;24.60;48.80
28374;DHT22;15616;40.148;-102.718;2023-06-10T07:04:25;24.50;48.80
28374;DHT22;15616;40.148;-102.718;2023-06-10T07:06:51;24.50;48.80
28374;DHT22;15616;40.148;-102.718;2023-06-10T07:09:17;24.60;48.80
28374;DHT22;15616;40.148;-102.718;2023-06-10T07:11:43;24.50;48.80
28374;DHT22;15616;40.148;-102.718;2023-06-10T07:14:08;24.50;48.80
28374;DHT22;15616;40.148;-102.718;2023-06-10T07:16:34;24.50;48.70
28374;DHT22;15616;40.148;-102.718;2023-06-10T07:19:00;24.60;48.80
28374;DHT22;15616;40.148;-102.718;2023-06-10T07:21:25;24.60;48.70
28374;DHT22;15616;40.148;-102.718;2023-06-10T07:23:53;24.60;48.80
28374;DHT22;15616;40.148;-102.718;2023-06-10T07:26:21;24.60;48.70
28374;DHT22;15616;40.148;-102.718;2023-06-10T07:28:47;24.60;48.80
28374;DHT22;15616;40.148;-102.718;2023-06-10T07:31:13;24.60;48.80
28374;DHT22;15616;40.148;-102.718;2023-06-10T07:33:39;24.60;48.70
28374;DHT22;15616;40.148;-102.718;2023-06-10T07:36:05;24.60;48.70
28374;DHT22;15616;40.148;-102.718;2023-06-10T07:38:31;24.60;48.70
28374;DHT22;15616;40.148;-102.718;2023-06-10T07:40:57;24.60;48.70
28374;DHT22;15616;40.148;-102.718;2023-06-10T07:43:23;24.60;48.70
28374;DHT22;15616;40.148;-102.718;2023-06-10T07:45:49;24.60;48.70
28374;DHT22;15616;40.148;-102.718;2023-06-10T07:48:15;24.60;48.70
28374;DHT22;15616;40.148;-102.718;2023-06-10T07:50:40;24.60;48.70
28374;DHT22;15616;40.148;-102.718;2023-06-10T07:53:06;24.60;48.70
28374;DHT22;15616;40.148;-102.718;2023-06-10T07:55:32;24.60;48.70
28374;DHT22;15616;40.148;-102.718;2023-06-10T07:57:58;24.70;48.80
28374;DHT22;15616;40.148;-102.718;2023-06-10T08:00:23;24.60;48.70
28374;DHT22;15616;40.148;-102.718;2023-06-10T08:02:49;24.70;48.70
28374;DHT22;15616;40.148;-102.718;2023-06-10T08:05:15;24.70;48.70
28374;DHT22;15616;40.148;-102.718;2023-06-10T08:07:42;24.70;48.70
28374;DHT22;15616;40.148;-102.718;2023-06-10T08:10:07;24.60;48.60
28374;DHT22;15616;40.148;-102.718;2023-06-10T08:12:33;24.70;48.70
28374;DHT22;15616;40.148;-102.718;2023-06-10T08:14:59;24.70;48.70
28374;DHT22;15616;40.148;-102.718;2023-06-10T08:17:25;24.70;48.70
28374;DHT22;15616;40.148;-102.718;2023-06-10T08:19:51;24.70;48.70
28374;DHT22;15616;40.148;-102.718;2023-06-10T08:22:17;24.70;48.70
28374;DHT22;15616;40.148;-102.718;2023-06-10T08:24:42;24.70;48.70
28374;DHT22;15616;40.148;-102.718;2023-06-10T08:27:08;24.70;48.60
28374;DHT22;15616;40.148;-102.718;2023-06-10T08:29:34;24.70;48.60
28374;DHT22;15616;40.148;-102.718;2023-06-10T08:32:00;24.70;48.50
28374;DHT22;15616;40.148;-102.718;2023-06-10T08:34:25;24.70;48.60
28374;DHT22;15616;40.148;-102.718;2023-06-10T08:36:51;24.70;48.60
28374;DHT22;15616;40.148;-102.718;2023-06-10T08:39:19;24.70;48.50
28374;DHT22;15616;40.148;-102.718;2023-06-10T08:41:46;24.70;48.50
28374;DHT22;15616;40.148;-102.718;2023-06-10T08:44:17;24.70;48.50
28374;DHT22;15616;40.148;-102.718;2023-06-10T08:46:46;24.80;48.50
28374;DHT22;15616;40.148;-102.718;2023-06-10T08:49:13;24.80;48.40
28374;DHT22;15616;40.148;-102.718;2023-06-10T08:51:42;24.90;48.40
28374;DHT22;15616;40.148;-102.718;2023-06-10T08:54:11;24.80;48.30
28374;DHT22;15616;40.148;-102.718;2023-06-10T08:56:39;24.80;48.30
28374;DHT22;15616;40.148;-102.718;2023-06-10T08:59:05;24.80;48.30
28374;DHT22;15616;40.148;-102.718;2023-06-10T09:01:31;24.80;48.30
28374;DHT22;15616;40.148;-102.718;2023-06-10T09:03:59;24.80;48.30
28374;DHT22;15616;40.148;-102.718;2023-06-10T09:06:25;24.90;48.40
28374;DHT22;15616;40.148;-102.718;2023-06-10T09:08:50;24.80;48.30
28374;DHT22;15616;40.148;-102.718;2023-06-10T09:11:16;24.90;48.30
28374;DHT22;15616;40.148;-102.718;2023-06-10T09:13:42;24.90;48.30
28374;DHT22;15616;40.148;-102.718;2023-06-10T09:16:08;24.90;48.30
28374;DHT22;15616;40.148;-102.718;2023-06-10T09:18:34;24.90;48.30
28374;DHT22;15616;40.148;-102.718;2023-06-10T09:21:00;24.90;48.30
28374;DHT22;15616;40.148;-102.718;2023-06-10T09:23:26;24.90;48.30
28374;DHT22;15616;40.148;-102.718;2023-06-10T09:25:57;24.90;48.20
28374;DHT22;15616;40.148;-102.718;2023-06-10T09:28:23;24.90;48.20
28374;DHT22;15616;40.148;-102.718;2023-06-10T09:30:49;24.90;48.20
28374;DHT22;15616;40.148;-102.718;2023-06-10T09:33:15;24.90;48.10
28374;DHT22;15616;40.148;-102.718;2023-06-10T09:35:45;24.90;48.10
28374;DHT22;15616;40.148;-102.718;2023-06-10T09:38:10;24.90;48.00
28374;DHT22;15616;40.148;-102.718;2023-06-10T09:40:57;25.00;48.00
28374;DHT22;15616;40.148;-102.718;2023-06-10T09:43:22;25.00;48.10
28374;DHT22;15616;40.148;-102.718;2023-06-10T09:45:48;25.00;48.00
28374;DHT22;15616;40.148;-102.718;2023-06-10T09:48:14;25.00;48.00
28374;DHT22;15616;40.148;-102.718;2023-06-10T09:50:43;25.00;47.90
28374;DHT22;15616;40.148;-102.718;2023-06-10T09:53:09;25.00;47.90
28374;DHT22;15616;40.148;-102.718;2023-06-10T09:55:39;25.00;47.80
28374;DHT22;15616;40.148;-102.718;2023-06-10T09:58:04;25.10;47.90
28374;DHT22;15616;40.148;-102.718;2023-06-10T10:00:33;25.10;47.90
28374;DHT22;15616;40.148;-102.718;2023-06-10T10:02:59;25.10;47.90
28374;DHT22;15616;40.148;-102.718;2023-06-10T10:05:26;25.10;47.80
28374;DHT22;15616;40.148;-102.718;2023-06-10T10:07:52;25.10;47.70
28374;DHT22;15616;40.148;-102.718;2023-06-10T10:10:19;25.10;47.70
28374;DHT22;15616;40.148;-102.718;2023-06-10T10:12:48;25.10;47.70
28374;DHT22;15616;40.148;-102.718;2023-06-10T10:15:15;25.20;47.80
28374;DHT22;15616;40.148;-102.718;2023-06-10T10:20:49;25.20;47.70
28374;DHT22;15616;40.148;-102.718;2023-06-10T10:23:18;25.20;47.70
28374;DHT22;15616;40.148;-102.718;2023-06-10T10:25:51;25.20;47.70
28374;DHT22;15616;40.148;-102.718;2023-06-10T10:28:17;25.20;47.70
28374;DHT22;15616;40.148;-102.718;2023-06-10T10:30:46;25.20;47.50
28374;DHT22;15616;40.148;-102.718;2023-06-10T10:33:13;25.20;47.50
28374;DHT22;15616;40.148;-102.718;2023-06-10T10:35:42;25.20;47.50
28374;DHT22;15616;40.148;-102.718;2023-06-10T10:38:08;25.30;47.50
28374;DHT22;15616;40.148;-102.718;2023-06-10T10:40:34;25.20;47.40
28374;DHT22;15616;40.148;-102.718;2023-06-10T10:43:00;25.30;47.50
28374;DHT22;15616;40.148;-102.718;2023-06-10T10:45:29;25.30;47.50
28374;DHT22;15616;40.148;-102.718;2023-06-10T10:47:55;25.30;47.40
28374;DHT22;15616;40.148;-102.718;2023-06-10T10:50:21;25.30;47.40
28374;DHT22;15616;40.148;-102.718;2023-06-10T10:52:51;25.30;47.30
28374;DHT22;15616;40.148;-102.718;2023-06-10T10:55:19;25.30;47.30
28374;DHT22;15616;40.148;-102.718;2023-06-10T10:57:45;25.30;47.30
28374;DHT22;15616;40.148;-102.718;2023-06-10T11:00:24;25.40;47.40
28374;DHT22;15616;40.148;-102.718;2023-06-10T11:02:50;25.30;47.20
28374;DHT22;15616;40.148;-102.718;2023-06-10T11:05:18;25.30;47.20
28374;DHT22;15616;40.148;-102.718;2023-06-10T11:07:56;25.40;47.30
28374;DHT22;15616;40.148;-102.718;2023-06-10T11:10:35;25.30;47.20
28374;DHT22;15616;40.148;-102.718;2023-06-10T11:15:33;25.40;47.20
28374;DHT22;15616;40.148;-102.718;2023-06-10T11:18:22;25.40;47.20
28374;DHT22;15616;40.148;-102.718;2023-06-10T11:28:38;25.40;47.10
28374;DHT22;15616;40.148;-102.718;2023-06-10T11:31:05;25.40;47.10
28374;DHT22;15616;40.148;-102.718;2023-06-10T11:33:31;25.40;47.10
28374;DHT22;15616;40.148;-102.718;2023-06-10T11:35:57;25.40;47.00
28374;DHT22;15616;40.148;-102.718;2023-06-10T11:38:24;25.40;47.00
28374;DHT22;15616;40.148;-102.718;2023-06-10T11:40:50;25.40;47.00
28374;DHT22;15616;40.148;-102.718;2023-06-10T11:43:18;25.40;47.00
28374;DHT22;15616;40.148;-102.718;2023-06-10T11:45:44;25.50;47.00
28374;DHT22;15616;40.148;-102.718;2023-06-10T11:48:10;25.50;47.00
28374;DHT22;15616;40.148;-102.718;2023-06-10T11:50:37;25.50;47.00
28374;DHT22;15616;40.148;-102.718;2023-06-10T11:53:03;25.50;46.90
28374;DHT22;15616;40.148;-102.718;2023-06-10T11:58:16;25.50;47.00
28374;DHT22;15616;40.148;-102.718;2023-06-10T12:00:55;25.50;47.00
28374;DHT22;15616;40.148;-102.718;2023-06-10T12:03:24;25.50;46.90
28374;DHT22;15616;40.148;-102.718;2023-06-10T12:05:56;25.50;46.90
28374;DHT22;15616;40.148;-102.718;2023-06-10T12:08:23;25.50;46.90
28374;DHT22;15616;40.148;-102.718;2023-06-10T12:10:48;25.50;46.90
28374;DHT22;15616;40.148;-102.718;2023-06-10T12:13:15;25.60;46.90
28374;DHT22;15616;40.148;-102.718;2023-06-10T12:15:40;25.50;46.80
28374;DHT22;15616;40.148;-102.718;2023-06-10T12:18:06;25.60;46.80
28374;DHT22;15616;40.148;-102.718;2023-06-10T12:20:32;25.60;46.80
28374;DHT22;15616;40.148;-102.718;2023-06-10T12:23:09;25.60;46.80
28374;DHT22;15616;40.148;-102.718;2023-06-10T12:25:35;25.60;46.80
28374;DHT22;15616;40.148;-102.718;2023-06-10T12:28:02;25.60;46.80
28374;DHT22;15616;40.148;-102.718;2023-06-10T12:30:28;25.60;46.80
28374;DHT22;15616;40.148;-102.718;2023-06-10T12:32:54;25.60;46.80
28374;DHT22;15616;40.148;-102.718;2023-06-10T12:35:24;25.60;46.70
28374;DHT22;15616;40.148;-102.718;2023-06-10T12:38:03;25.60;46.70
28374;DHT22;15616;40.148;-102.718;2023-06-10T12:40:31;25.60;46.70
28374;DHT22;15616;40.148;-102.718;2023-06-10T12:42:57;25.60;46.70
28374;DHT22;15616;40.148;-102.718;2023-06-10T12:45:42;25.60;46.70
28374;DHT22;15616;40.148;-102.718;2023-06-10T12:48:11;25.70;46.70
28374;DHT22;15616;40.148;-102.718;2023-06-10T12:50:41;25.70;46.70
28374;DHT22;15616;40.148;-102.718;2023-06-10T12:53:08;25.70;46.70
28374;DHT22;15616;40.148;-102.718;2023-06-10T12:55:34;25.70;46.70
28374;DHT22;15616;40.148;-102.718;2023-06-10T12:58:00;25.70;46.60
28374;DHT22;15616;40.148;-102.718;2023-06-10T13:00:27;25.70;46.60
28374;DHT22;15616;40.148;-102.718;2023-06-10T13:02:59;25.80;46.60
28374;DHT22;15616;40.148;-102.718;2023-06-10T13:05:26;25.80;46.60
28374;DHT22;15616;40.148;-102.718;2023-06-10T13:07:52;25.80;46.50
28374;DHT22;15616;40.148;-102.718;2023-06-10T13:10:18;25.70;46.50
28374;DHT22;15616;40.148;-102.718;2023-06-10T13:12:44;25.80;46.60
28374;DHT22;15616;40.148;-102.718;2023-06-10T13:15:10;25.80;46.60
28374;DHT22;15616;40.148;-102.718;2023-06-10T13:17:36;25.80;46.50
28374;DHT22;15616;40.148;-102.718;2023-06-10T13:20:02;25.80;46.50
28374;DHT22;15616;40.148;-102.718;2023-06-10T13:22:30;25.80;46.50
28374;DHT22;15616;40.148;-102.718;2023-06-10T13:25:01;25.80;46.40
28374;DHT22;15616;40.148;-102.718;2023-06-10T13:27:26;25.80;46.40
28374;DHT22;15616;40.148;-102.718;2023-06-10T13:29:52;25.80;46.40
28374;DHT22;15616;40.148;-102.718;2023-06-10T13:32:18;25.80;46.30
28374;DHT22;15616;40.148;-102.718;2023-06-10T13:34:44;25.80;46.30
28374;DHT22;15616;40.148;-102.718;2023-06-10T13:37:10;25.80;46.30
28374;DHT22;15616;40.148;-102.718;2023-06-10T13:39:38;25.80;46.30
28374;DHT22;15616;40.148;-102.718;2023-06-10T13:42:04;25.80;46.20
28374;DHT22;15616;40.148;-102.718;2023-06-10T13:44:30;25.80;46.20
28374;DHT22;15616;40.148;-102.718;2023-06-10T13:46:59;25.80;46.20
28374;DHT22;15616;40.148;-102.718;2023-06-10T13:49:24;25.90;46.20
28374;DHT22;15616;40.148;-102.718;2023-06-10T13:51:50;25.80;46.20
28374;DHT22;15616;40.148;-102.718;2023-06-10T13:54:16;25.90;46.30
28374;DHT22;15616;40.148;-102.718;2023-06-10T13:56:41;25.90;46.30
28374;DHT22;15616;40.148;-102.718;2023-06-10T13:59:07;25.90;46.30
28374;DHT22;15616;40.148;-102.718;2023-06-10T14:01:33;25.90;46.30
28374;DHT22;15616;40.148;-102.718;2023-06-10T14:04:00;25.90;46.20
28374;DHT22;15616;40.148;-102.718;2023-06-10T14:06:26;25.90;46.20
28374;DHT22;15616;40.148;-102.718;2023-06-10T14:08:52;25.90;46.20
28374;DHT22;15616;40.148;-102.718;2023-06-10T14:11:20;25.90;46.20
28374;DHT22;15616;40.148;-102.718;2023-06-10T14:13:46;25.90;46.20
28374;DHT22;15616;40.148;-102.718;2023-06-10T14:16:12;25.90;46.20
28374;DHT22;15616;40.148;-102.718;2023-06-10T14:18:38;25.90;46.20
28374;DHT22;15616;40.148;-102.718;2023-06-10T14:21:03;25.90;46.20
28374;DHT22;15616;40.148;-102.718;2023-06-10T14:23:29;25.90;46.20
28374;DHT22;15616;40.148;-102.718;2023-06-10T14:25:55;25.90;46.10
28374;DHT22;15616;40.148;-102.718;2023-06-10T14:28:21;25.90;46.10
28374;DHT22;15616;40.148;-102.718;2023-06-10T14:30:46;25.90;46.10
28374;DHT22;15616;40.148;-102.718;2023-06-10T14:33:12;25.90;46.00
28374;DHT22;15616;40.148;-102.718;2023-06-10T14:35:38;25.90;46.10
28374;DHT22;15616;40.148;-102.718;2023-06-10T14:38:03;25.90;46.00
28374;DHT22;15616;40.148;-102.718;2023-06-10T14:40:29;25.90;46.00
28374;DHT22;15616;40.148;-102.718;2023-06-10T14:42:57;26.00;46.10
28374;DHT22;15616;40.148;-102.718;2023-06-10T14:45:23;26.00;46.00
28374;DHT22;15616;40.148;-102.718;2023-06-10T14:47:50;25.90;46.00
28374;DHT22;15616;40.148;-102.718;2023-06-10T14:50:16;26.00;46.00
28374;DHT22;15616;40.148;-102.718;2023-06-10T14:52:42;26.00;46.00
28374;DHT22;15616;40.148;-102.718;2023-06-10T14:55:08;26.00;46.00
28374;DHT22;15616;40.148;-102.718;2023-06-10T14:57:33;26.00;45.90
28374;DHT22;15616;40.148;-102.718;2023-06-10T14:59:59;26.10;45.90
28374;DHT22;15616;40.148;-102.718;2023-06-10T15:02:25;26.10;45.80
28374;DHT22;15616;40.148;-102.718;2023-06-10T15:04:52;26.10;45.90
28374;DHT22;15616;40.148;-102.718;2023-06-10T15:07:17;26.10;45.70